Time;durP1;ratioP1;P1;durP2;ratioP2;P2;SDS_P1;SDS_P2;PMS_P1;PMS_P2;Temp;Humidity;BMP_temperature;BMP_pressure;BME280_temperature;BME280_humidity;BME280_pressure;Samples;Min_cycle;Max_cycle;Signal;HPM_P1;HPM_P2
2022/05/14 00:01:13;;;;;;;38.88;13.23;;;;;;;11.62;100.00;101725.72;4986275;28;20042;-77
2022/05/14 00:03:40;;;;;;;53.28;13.73;;;;;;;11.58;100.00;101726.94;4993604;28;20375;-77
2022/05/14 00:06:12;;;;;;;56.25;13.77;;;;;;;11.53;100.00;101720.91;4992598;28;20026;-77
2022/05/14 00:08:38;;;;;;;41.15;13.90;;;;;;;11.51;100.00;101720.09;4988778;28;20035;-76
2022/05/14 00:13:50;;;;;;;56.08;14.50;;;;;;;11.37;100.00;101726.56;4981277;28;20136;-77
2022/05/14 00:16:18;;;;;;;51.38;13.55;;;;;;;11.31;100.00;101726.97;4990036;28;20022;-76
2022/05/14 00:18:44;;;;;;;47.15;13.00;;;;;;;11.43;100.00;101736.22;4981810;28;20065;-76
2022/05/14 00:21:11;;;;;;;37.42;11.35;;;;;;;11.45;100.00;101734.28;4963382;28;20035;-76
2022/05/14 00:23:36;;;;;;;43.15;12.15;;;;;;;11.42;100.00;101729.00;4992369;28;20038;-77
2022/05/14 00:26:02;;;;;;;36.55;11.65;;;;;;;11.52;100.00;101724.63;4988897;28;20490;-76
2022/05/14 00:28:28;;;;;;;25.77;9.45;;;;;;;11.55;100.00;101722.53;4992551;28;20033;-77
2022/05/14 00:30:54;;;;;;;28.85;9.57;;;;;;;11.55;100.00;101727.16;4966243;28;20121;-76
2022/05/14 00:33:19;;;;;;;30.35;8.80;;;;;;;11.57;100.00;101716.94;4960306;28;20085;-76
2022/05/14 00:35:45;;;;;;;22.83;8.65;;;;;;;11.55;100.00;101716.19;4993575;28;20038;-76
2022/05/14 00:38:11;;;;;;;33.00;8.48;;;;;;;11.73;100.00;101716.75;4972530;28;20027;-76
2022/05/14 00:40:54;;;;;;;33.22;8.65;;;;;;;11.70;100.00;101716.97;4991801;28;20049;-76
2022/05/14 00:43:22;;;;;;;29.77;8.93;;;;;;;11.66;100.00;101715.41;4992255;28;20038;-76
2022/05/14 00:46:07;;;;;;;30.15;8.00;;;;;;;11.66;100.00;101713.56;4992834;28;20058;-77
2022/05/14 00:48:41;;;;;;;24.75;7.50;;;;;;;11.52;100.00;101716.41;4978129;28;20091;-77
2022/05/14 00:51:07;;;;;;;30.23;7.63;;;;;;;11.52;100.00;101713.66;4992849;28;20077;-76
2022/05/14 00:53:36;;;;;;;25.15;7.38;;;;;;;11.49;100.00;101708.38;5005636;28;20046;-76
2022/05/14 00:56:07;;;;;;;24.70;6.95;;;;;;;11.44;100.00;101705.06;4991585;28;20042;-76
2022/05/14 00:58:40;;;;;;;23.30;6.15;;;;;;;11.27;100.00;101703.50;4991918;28;20049;-77
2022/05/14 01:01:07;;;;;;;17.52;5.90;;;;;;;11.26;100.00;101718.19;4991245;28;20378;-76
2022/05/14 01:03:33;;;;;;;26.65;5.90;;;;;;;11.35;100.00;101720.31;4996840;28;20490;-77
2022/05/14 01:06:01;;;;;;;20.05;6.20;;;;;;;11.49;100.00;101719.34;5011816;28;20564;-76
2022/05/14 01:08:29;;;;;;;17.83;5.35;;;;;;;11.42;100.00;101710.66;5012180;28;20505;-76
2022/05/14 01:10:54;;;;;;;15.10;4.95;;;;;;;11.42;100.00;101718.91;4996311;28;20038;-76
2022/05/14 01:13:20;;;;;;;21.10;5.05;;;;;;;11.39;100.00;101721.84;4997950;28;20042;-77
2022/05/14 01:15:49;;;;;;;29.77;5.70;;;;;;;11.44;100.00;101716.91;4993610;28;20038;-76
2022/05/14 01:18:22;;;;;;;17.38;5.40;;;;;;;11.45;100.00;101723.31;4992525;28;20031;-77
2022/05/14 01:21:23;;;;;;;13.32;4.90;;;;;;;11.36;100.00;101724.78;4987550;28;20038;-76
2022/05/14 01:26:44;;;;;;;19.40;4.38;;;;;;;11.06;100.00;101722.28;4997861;28;20039;-76
2022/05/14 01:29:15;;;;;;;14.68;6.65;;;;;;;11.03;100.00;101717.88;4996601;28;20038;-76
2022/05/14 01:31:40;;;;;;;20.17;4.85;;;;;;;11.14;100.00;101725.38;4993344;28;20040;-75
2022/05/14 01:34:12;;;;;;;20.67;4.65;;;;;;;11.12;100.00;101727.38;4993716;28;20038;-75
2022/05/14 01:36:39;;;;;;;25.90;6.22;;;;;;;11.00;100.00;101724.47;5012487;28;20490;-75
2022/05/14 01:39:06;;;;;;;17.70;4.82;;;;;;;10.93;100.00;101717.63;4997001;28;20038;-75
2022/05/14 01:41:32;;;;;;;18.75;4.93;;;;;;;10.95;100.00;101726.63;4993740;28;20052;-76
2022/05/14 01:43:57;;;;;;;13.77;4.47;;;;;;;10.90;100.00;101725.16;4993123;28;20046;-76
2022/05/14 01:46:23;;;;;;;27.05;5.13;;;;;;;10.90;100.00;101728.78;4995255;28;20089;-76
2022/05/14 01:48:49;;;;;;;14.63;4.15;;;;;;;10.95;100.00;101721.16;4992216;28;20487;-76
2022/05/14 01:51:14;;;;;;;14.30;4.05;;;;;;;10.96;100.00;101716.53;4986748;28;20062;-75
2022/05/14 01:53:40;;;;;;;19.17;4.22;;;;;;;10.78;100.00;101719.50;4979009;28;20121;-76
2022/05/14 01:56:06;;;;;;;10.90;4.45;;;;;;;10.77;100.00;101725.09;4996255;28;20389;-75
2022/05/14 01:58:38;;;;;;;16.27;4.07;;;;;;;10.87;100.00;101719.88;4995708;28;20105;-77
2022/05/14 02:01:12;;;;;;;16.33;3.30;;;;;;;10.86;100.00;101729.97;4975738;28;20142;-77
2022/05/14 02:03:39;;;;;;;18.52;4.20;;;;;;;10.72;100.00;101724.53;4994552;28;20093;-75
2022/05/14 02:06:05;;;;;;;15.55;3.55;;;;;;;10.77;100.00;101719.63;4978680;28;20057;-75
2022/05/14 02:08:33;;;;;;;19.35;4.05;;;;;;;10.71;100.00;101739.19;4991018;28;20026;-77
2022/05/14 02:10:59;;;;;;;13.50;3.70;;;;;;;10.72;100.00;101730.88;5009627;28;20545;-77
2022/05/14 02:13:25;;;;;;;22.80;4.03;;;;;;;10.72;100.00;101724.53;4993806;28;20030;-75
2022/05/14 02:15:52;;;;;;;12.82;4.20;;;;;;;10.64;100.00;101725.00;4995314;28;20034;-76
2022/05/14 02:18:19;;;;;;;9.93;3.63;;;;;;;10.71;100.00;101723.66;4994462;28;20042;-75
2022/05/14 02:20:45;;;;;;;22.67;4.07;;;;;;;10.65;100.00;101718.56;4988453;28;20035;-76
2022/05/14 02:23:12;;;;;;;14.98;3.65;;;;;;;10.61;100.00;101722.50;4994429;28;20129;-76
2022/05/14 02:25:38;;;;;;;16.27;3.85;;;;;;;10.71;100.00;101722.75;4987898;28;20070;-76
2022/05/14 02:28:05;;;;;;;16.05;4.10;;;;;;;10.64;100.00;101720.44;4993608;28;20093;-76
2022/05/14 02:30:30;;;;;;;19.80;4.15;;;;;;;10.60;100.00;101721.59;4995362;28;20046;-76
2022/05/14 02:32:57;;;;;;;12.68;3.42;;;;;;;10.63;100.00;101726.88;4988051;28;20062;-76
2022/05/14 02:35:22;;;;;;;10.52;3.72;;;;;;;10.65;100.00;101730.41;4991865;28;20478;-76
2022/05/14 02:37:48;;;;;;;18.42;3.90;;;;;;;10.63;100.00;101726.88;4992806;28;20049;-76
2022/05/14 02:40:14;;;;;;;18.80;4.25;;;;;;;10.63;100.00;101724.16;4991248;28;20042;-77
2022/05/14 02:42:40;;;;;;;13.02;3.22;;;;;;;10.68;100.00;101729.34;4994351;28;20077;-76
2022/05/14 02:45:06;;;;;;;27.02;5.63;;;;;;;10.41;100.00;101735.63;4990640;28;20169;-76
2022/05/14 02:47:32;;;;;;;10.27;3.33;;;;;;;10.46;100.00;101738.94;4995265;28;20033;-76
2022/05/14 02:49:58;;;;;;;9.95;2.95;;;;;;;10.43;100.00;101730.94;4994455;28;20038;-76
2022/05/14 02:52:24;;;;;;;11.68;3.40;;;;;;;10.56;100.00;101733.75;4994287;28;20346;-76
2022/05/14 02:54:50;;;;;;;14.90;3.65;;;;;;;10.54;100.00;101732.09;4984606;28;20530;-76
2022/05/14 02:57:17;;;;;;;12.68;2.97;;;;;;;10.56;100.00;101736.50;4995466;28;20072;-76
2022/05/14 02:59:42;;;;;;;12.70;3.22;;;;;;;10.46;100.00;101735.31;4993005;28;20050;-76
2022/05/14 03:02:08;;;;;;;10.65;2.67;;;;;;;10.47;100.00;101735.22;4970815;28;20042;-76
2022/05/14 03:04:38;;;;;;;14.05;3.40;;;;;;;10.48;100.00;101736.13;4968654;28;20117;-76
2022/05/14 03:07:08;;;;;;;13.77;3.33;;;;;;;10.51;100.00;101748.72;4993330;28;20128;-75
2022/05/14 03:09:35;;;;;;;13.05;3.33;;;;;;;10.40;100.00;101736.59;4995688;28;20045;-77
2022/05/14 03:12:01;;;;;;;20.35;3.17;;;;;;;10.34;100.00;101725.16;4993557;28;20096;-76
2022/05/14 03:14:26;;;;;;;15.10;3.58;;;;;;;10.33;100.00;101728.88;4981466;28;20426;-76
2022/05/14 03:16:53;;;;;;;12.57;3.40;;;;;;;10.23;100.00;101725.81;4992111;28;20078;-76
2022/05/14 03:19:19;;;;;;;14.20;4.43;;;;;;;10.22;100.00;101716.72;4970492;28;20035;-76
2022/05/14 03:21:45;;;;;;;9.15;3.25;;;;;;;10.17;100.00;101723.47;4983840;28;20049;-76
2022/05/14 03:24:11;;;;;;;15.52;3.65;;;;;;;10.18;100.00;101728.81;4988861;28;20176;-75
2022/05/14 03:26:41;;;;;;;19.58;3.90;;;;;;;10.11;100.00;101727.47;4995171;28;20042;-77
2022/05/14 03:29:08;;;;;;;17.73;4.55;;;;;;;10.09;100.00;101730.28;4990412;28;20494;-76
2022/05/14 03:31:36;;;;;;;15.45;3.63;;;;;;;10.11;100.00;101731.06;4994824;28;20045;-76
2022/05/14 03:34:03;;;;;;;12.55;3.25;;;;;;;10.08;100.00;101728.56;4991748;28;20058;-77
2022/05/14 03:36:29;;;;;;;11.10;2.97;;;;;;;10.17;100.00;101728.97;4988862;28;20044;-76
2022/05/14 03:38:54;;;;;;;16.15;3.30;;;;;;;10.16;100.00;101735.41;4982971;28;20042;-75
2022/05/14 03:41:21;;;;;;;26.98;4.13;;;;;;;10.08;100.00;101733.13;4992500;28;20040;-77
2022/05/14 03:43:48;;;;;;;11.75;3.72;;;;;;;10.04;100.00;101739.78;4995170;28;20030;-77
2022/05/14 03:46:14;;;;;;;12.63;3.13;;;;;;;9.99;100.00;101736.47;4990975;28;20038;-76
2022/05/14 03:48:40;;;;;;;12.43;3.97;;;;;;;9.97;100.00;101735.66;4993501;28;20105;-76
2022/05/14 03:51:05;;;;;;;11.02;3.42;;;;;;;9.98;100.00;101729.22;4993536;28;20104;-76
2022/05/14 03:53:32;;;;;;;16.15;3.65;;;;;;;10.07;100.00;101731.38;4990507;28;20053;-76
2022/05/14 03:55:58;;;;;;;13.10;3.15;;;;;;;9.96;100.00;101736.66;5009004;28;20034;-76
2022/05/14 03:58:23;;;;;;;15.90;3.75;;;;;;;9.88;100.00;101737.13;4992855;28;20046;-75
2022/05/14 04:00:49;;;;;;;13.10;3.40;;;;;;;9.87;100.00;101736.25;4993125;28;20044;-76
2022/05/14 04:03:14;;;;;;;12.70;3.33;;;;;;;9.88;100.00;101743.47;4988557;28;20043;-77
2022/05/14 04:05:40;;;;;;;13.30;4.45;;;;;;;9.89;100.00;101738.91;4989937;28;20054;-75
2022/05/14 04:08:06;;;;;;;19.60;3.40;;;;;;;9.85;100.00;101738.19;4991876;28;20084;-76
2022/05/14 04:10:32;;;;;;;10.38;3.70;;;;;;;9.85;100.00;101740.03;4994217;28;20038;-76
2022/05/14 04:12:59;;;;;;;10.70;3.70;;;;;;;9.88;100.00;101735.25;4974748;28;20033;-77
2022/05/14 04:15:25;;;;;;;12.82;3.53;;;;;;;9.90;100.00;101748.84;4973672;28;20034;-76
2022/05/14 04:17:51;;;;;;;16.77;4.18;;;;;;;9.88;100.00;101740.72;4989655;28;20037;-77
2022/05/14 04:20:17;;;;;;;19.88;4.13;;;;;;;10.07;100.00;101745.94;4993126;28;20509;-75
2022/05/14 04:22:43;;;;;;;17.38;4.43;;;;;;;9.87;100.00;101746.28;4959248;28;20066;-74
2022/05/14 04:25:10;;;;;;;16.90;3.65;;;;;;;9.94;100.00;101744.94;4993945;28;20482;-76
2022/05/14 04:27:37;;;;;;;14.32;3.47;;;;;;;9.91;100.00;101758.81;4988535;28;20045;-75
2022/05/14 04:30:04;;;;;;;14.30;4.57;;;;;;;9.93;100.00;101751.38;4984526;28;20026;-76
2022/05/14 04:32:30;;;;;;;14.95;3.75;;;;;;;9.83;100.00;101750.22;4985157;28;20093;-76
2022/05/14 04:34:56;;;;;;;14.63;3.67;;;;;;;9.92;100.00;101745.03;4989835;28;20109;-75
2022/05/14 04:37:22;;;;;;;14.73;3.72;;;;;;;9.92;100.00;101750.50;4972694;28;20060;-77
2022/05/14 04:39:49;;;;;;;10.43;2.95;;;;;;;9.96;100.00;101753.06;5013954;28;20483;-76
2022/05/14 04:42:15;;;;;;;10.57;3.08;;;;;;;10.04;100.00;101756.19;4998966;28;20096;-76
2022/05/14 04:44:42;;;;;;;15.80;3.55;;;;;;;9.97;100.00;101749.34;4997541;28;20034;-76
2022/05/14 04:47:08;;;;;;;14.77;3.92;;;;;;;9.99;100.00;101753.75;4998143;28;20438;-75
2022/05/14 04:49:47;;;;;;;9.68;3.20;;;;;;;10.09;100.00;101745.84;5014049;28;20086;-76
2022/05/14 04:52:13;;;;;;;17.92;4.13;;;;;;;10.14;100.00;101751.03;4994527;28;20117;-76
2022/05/14 04:54:39;;;;;;;21.88;3.97;;;;;;;10.16;100.00;101752.69;4992373;28;20112;-75
2022/05/14 04:57:07;;;;;;;16.15;3.30;;;;;;;10.15;100.00;101758.25;4995700;28;20129;-75
2022/05/14 04:59:35;;;;;;;16.85;3.92;;;;;;;10.18;100.00;101756.19;4994715;28;20039;-75
2022/05/14 05:04:45;;;;;;;13.73;4.05;;;;;;;10.38;100.00;101759.56;4992310;28;20051;-75
2022/05/14 05:07:11;;;;;;;10.30;3.05;;;;;;;10.45;100.00;101770.03;5003203;28;20185;-76
2022/05/14 05:09:37;;;;;;;10.68;3.35;;;;;;;10.51;100.00;101762.41;4996441;28;20853;-75
2022/05/14 05:12:04;;;;;;;13.55;3.22;;;;;;;10.46;100.00;101759.94;4986398;28;20049;-75
2022/05/14 05:14:31;;;;;;;13.43;3.83;;;;;;;10.49;100.00;101767.97;4980281;28;20120;-76
2022/05/14 05:16:57;;;;;;;17.95;4.40;;;;;;;10.54;100.00;101762.19;4992349;28;20059;-77
2022/05/14 05:19:23;;;;;;;11.73;4.15;;;;;;;10.71;100.00;101777.53;4980244;28;20035;-78
2022/05/14 05:21:49;;;;;;;14.13;3.83;;;;;;;10.61;100.00;101782.75;4991570;28;20492;-77
2022/05/14 05:24:15;;;;;;;20.83;3.78;;;;;;;10.79;100.00;101775.16;4995025;28;20086;-76
2022/05/14 05:26:41;;;;;;;16.77;3.72;;;;;;;10.92;100.00;101770.69;4995216;28;20065;-76
2022/05/14 05:29:09;;;;;;;12.15;3.20;;;;;;;11.19;100.00;101776.16;4995144;28;20035;-76
2022/05/14 05:31:35;;;;;;;19.02;3.70;;;;;;;11.38;100.00;101784.03;4993378;28;20049;-77
2022/05/14 05:34:02;;;;;;;18.85;4.80;;;;;;;11.38;100.00;101786.78;5009154;28;20092;-77
2022/05/14 05:36:29;;;;;;;23.15;3.67;;;;;;;11.79;100.00;101793.16;4993709;28;20042;-76
2022/05/14 05:38:54;;;;;;;16.40;3.17;;;;;;;11.91;100.00;101792.34;5011110;28;20089;-77
2022/05/14 05:41:21;;;;;;;10.85;3.65;;;;;;;11.62;100.00;101787.94;5008124;28;20050;-77
2022/05/14 05:43:47;;;;;;;12.60;3.92;;;;;;;11.59;100.00;101783.53;4979266;28;20372;-77
2022/05/14 05:46:13;;;;;;;21.25;3.45;;;;;;;12.32;100.00;101796.75;4992628;28;20108;-76
2022/05/14 05:48:39;;;;;;;20.30;4.18;;;;;;;12.48;100.00;101801.16;4989193;28;20046;-76
2022/05/14 05:51:06;;;;;;;21.05;4.10;;;;;;;12.12;100.00;101798.19;4993862;28;20026;-75
2022/05/14 05:59:03;;;;;;;21.23;4.22;;;;;;;12.91;100.00;101797.16;4993696;28;20509;-74
2022/05/14 06:01:29;;;;;;;10.85;4.05;;;;;;;13.02;100.00;101805.50;4995041;28;20038;-76
2022/05/14 06:03:55;;;;;;;18.88;4.88;;;;;;;12.73;100.00;101803.00;4995554;28;20034;-74
2022/05/14 06:06:21;;;;;;;18.60;5.13;;;;;;;12.84;100.00;101808.59;4989164;28;20042;-76
2022/05/14 06:08:50;;;;;;;21.58;5.85;;;;;;;12.99;100.00;101805.72;4993715;28;20041;-76
2022/05/14 06:11:17;;;;;;;15.88;4.68;;;;;;;13.59;100.00;101809.47;4994072;28;20077;-76
2022/05/14 06:13:44;;;;;;;13.48;5.45;;;;;;;13.90;98.81;101807.97;4959145;28;20035;-76
2022/05/14 06:16:10;;;;;;;17.77;4.65;;;;;;;13.52;100.00;101808.19;4991780;28;20471;-75
2022/05/14 06:18:37;;;;;;;28.33;5.53;;;;;;;14.22;97.09;101811.97;4977990;28;20433;-76
2022/05/14 06:21:06;;;;;;;19.13;5.22;;;;;;;13.78;97.90;101819.94;4978933;28;20125;-76
2022/05/14 06:23:33;;;;;;;26.73;5.78;;;;;;;14.16;97.45;101814.19;4989934;28;20045;-76
2022/05/14 06:25:59;;;;;;;25.27;6.00;;;;;;;14.95;93.45;101802.38;4970891;28;20491;-76
2022/05/14 06:28:24;;;;;;;17.73;5.50;;;;;;;14.58;94.27;101793.47;4975830;28;20037;-76
2022/05/14 06:30:50;;;;;;;20.88;6.20;;;;;;;14.92;93.62;101807.28;4986765;28;20403;-76
2022/05/14 06:33:16;;;;;;;22.20;6.18;;;;;;;14.99;91.39;101816.81;4993321;28;20105;-76
2022/05/14 06:35:43;;;;;;;18.05;5.65;;;;;;;15.18;92.40;101825.31;4984172;28;20042;-75
2022/05/14 06:38:09;;;;;;;24.88;6.15;;;;;;;15.75;88.80;101814.09;4996428;28;20036;-74
2022/05/14 06:40:36;;;;;;;19.40;5.97;;;;;;;15.97;89.14;101814.03;4992912;28;20409;-75
2022/05/14 06:43:01;;;;;;;23.38;6.47;;;;;;;15.85;88.82;101823.38;4975755;28;20034;-74
2022/05/14 06:45:27;;;;;;;32.85;6.53;;;;;;;16.29;87.48;101823.28;4987969;28;20054;-74
2022/05/14 06:47:53;;;;;;;26.40;6.50;;;;;;;16.74;84.64;101828.47;4995639;28;20448;-76
2022/05/14 06:50:19;;;;;;;23.70;6.80;;;;;;;16.37;86.56;101825.38;5007359;28;20030;-75
2022/05/14 06:52:48;;;;;;;24.75;6.85;;;;;;;16.51;86.15;101833.31;4983992;28;20478;-76
2022/05/14 06:55:17;;;;;;;22.38;7.35;;;;;;;16.13;87.30;101832.94;4992801;28;20034;-76
2022/05/14 06:57:43;;;;;;;24.67;7.50;;;;;;;16.24;87.12;101833.88;4991851;28;20048;-75
2022/05/14 07:00:09;;;;;;;28.88;7.60;;;;;;;15.92;89.04;101829.25;4990795;28;20466;-75
2022/05/14 07:02:36;;;;;;;41.35;7.88;;;;;;;16.24;88.84;101831.13;4994697;28;20038;-75
2022/05/14 07:07:47;;;;;;;25.40;6.57;;;;;;;16.91;84.05;101829.78;4992623;28;20046;-76
2022/05/14 07:10:13;;;;;;;28.23;8.07;;;;;;;16.35;88.19;101815.34;4975080;28;20046;-77
2022/05/14 07:12:40;;;;;;;33.78;7.95;;;;;;;17.07;84.68;101823.72;4994708;28;20042;-75
2022/05/14 07:15:06;;;;;;;30.05;8.15;;;;;;;17.15;83.66;101825.78;4994755;28;20040;-76
2022/05/14 07:17:32;;;;;;;30.10;8.95;;;;;;;17.13;83.47;101823.16;4995302;28;20070;-77
2022/05/14 07:19:58;;;;;;;30.20;7.78;;;;;;;17.42;82.79;101826.00;4994710;28;20122;-77
2022/05/14 07:22:24;;;;;;;28.38;7.15;;;;;;;18.11;79.66;101828.84;4995167;28;20042;-76
2022/05/14 07:24:49;;;;;;;27.30;7.15;;;;;;;18.92;75.51;101825.59;4994469;28;20033;-77
2022/05/14 07:27:16;;;;;;;26.55;7.82;;;;;;;18.78;75.95;101823.31;4994054;28;20061;-77
2022/05/14 07:29:44;;;;;;;27.38;8.30;;;;;;;18.99;76.13;101825.88;4993707;28;20058;-75
2022/05/14 07:32:11;;;;;;;28.55;8.48;;;;;;;18.53;77.79;101829.38;4994448;28;20039;-76
2022/05/14 07:34:38;;;;;;;32.47;8.13;;;;;;;18.86;75.99;101832.66;4994765;28;20033;-77
2022/05/14 07:37:13;;;;;;;36.92;8.93;;;;;;;18.84;76.92;101831.03;4994268;28;20034;-77
2022/05/14 07:39:45;;;;;;;33.85;9.23;;;;;;;18.44;77.17;101821.06;4977403;28;20037;-78
2022/05/14 07:42:18;;;;;;;34.40;8.57;;;;;;;19.26;74.48;101823.09;4994795;28;20149;-77
2022/05/14 07:44:47;;;;;;;40.25;9.32;;;;;;;19.70;72.72;101829.88;4994093;28;20839;-76
2022/05/14 07:47:13;;;;;;;28.48;9.52;;;;;;;19.15;74.81;101833.53;4994904;28;20107;-76
2022/05/14 07:49:42;;;;;;;36.50;9.00;;;;;;;19.97;71.71;101827.03;5010297;28;20042;-76
2022/05/14 07:52:12;;;;;;;38.50;9.40;;;;;;;19.83;72.08;101824.81;4995022;28;20034;-75
2022/05/14 07:54:37;;;;;;;28.85;8.20;;;;;;;19.75;71.35;101830.25;4993140;28;20065;-79
2022/05/14 07:57:06;;;;;;;34.25;8.82;;;;;;;20.43;70.53;101835.25;4994906;28;20042;-78
2022/05/14 07:59:36;;;;;;;44.70;9.57;;;;;;;19.78;72.72;101843.88;4989055;28;20054;-79
2022/05/14 08:02:09;;;;;;;27.25;8.60;;;;;;;19.42;74.54;101841.00;4977694;28;20070;-77
2022/05/14 08:04:39;;;;;;;36.10;9.68;;;;;;;19.69;72.17;101837.31;4994758;28;20481;-77
2022/05/14 08:07:05;;;;;;;44.22;9.63;;;;;;;19.84;72.98;101826.56;4995896;28;20048;-76
2022/05/14 08:09:30;;;;;;;30.23;9.93;;;;;;;19.97;71.01;101829.81;4967590;28;20121;-78
2022/05/14 08:11:58;;;;;;;32.88;9.70;;;;;;;20.42;67.79;101827.06;4977720;28;20031;-77
2022/05/14 08:14:25;;;;;;;39.90;9.32;;;;;;;20.26;70.33;101825.88;4988952;28;20066;-77
2022/05/14 08:16:51;;;;;;;36.50;11.55;;;;;;;19.87;69.49;101829.00;4993007;28;20605;-78
2022/05/14 08:19:16;;;;;;;33.45;9.48;;;;;;;20.46;68.86;101829.34;4996001;28;20138;-78
2022/05/14 08:24:34;;;;;;;41.22;10.57;;;;;;;20.29;69.12;101820.00;4995546;28;20073;-77
2022/05/14 08:27:09;;;;;;;45.38;11.48;;;;;;;20.03;69.32;101819.97;4977284;28;20050;-79
2022/05/14 08:29:35;;;;;;;37.30;10.60;;;;;;;20.91;67.52;101830.19;5009935;28;20030;-78
2022/05/14 08:32:03;;;;;;;46.45;10.88;;;;;;;20.18;70.33;101825.81;4984132;28;20034;-78
2022/05/14 08:34:29;;;;;;;32.00;9.90;;;;;;;21.06;67.35;101825.72;4974982;28;20114;-78
2022/05/14 08:36:55;;;;;;;33.60;9.77;;;;;;;21.09;67.07;101827.31;4976338;28;20030;-78
2022/05/14 08:39:21;;;;;;;34.95;9.85;;;;;;;21.21;65.98;101825.97;4988722;28;20038;-77
2022/05/14 08:41:49;;;;;;;34.00;9.57;;;;;;;21.51;65.29;101831.16;4993702;28;20043;-77
2022/05/14 08:44:19;;;;;;;35.92;9.60;;;;;;;21.03;66.40;101830.78;4994828;28;20050;-79
2022/05/14 08:46:46;;;;;;;38.08;9.00;;;;;;;21.20;65.41;101817.78;4994262;28;20509;-78
2022/05/14 08:49:32;;;;;;;25.95;8.25;;;;;;;21.08;65.00;101831.13;5015448;28;20034;-78
2022/05/14 08:51:59;;;;;;;37.67;8.40;;;;;;;21.56;63.74;101824.06;4999373;28;20045;-79
2022/05/14 08:54:25;;;;;;;31.77;7.90;;;;;;;21.35;64.04;101829.16;4995175;28;20030;-77
2022/05/14 08:56:59;;;;;;;36.22;9.73;;;;;;;21.52;63.62;101825.41;4983216;28;20031;-78
2022/05/14 08:59:39;;;;;;;35.08;8.73;;;;;;;21.25;64.30;101827.41;5012107;28;20389;-77
2022/05/14 09:02:13;;;;;;;42.88;8.40;;;;;;;21.39;65.29;101819.44;4999906;28;20034;-79
2022/05/14 09:04:39;;;;;;;35.30;9.40;;;;;;;21.02;66.53;101823.44;5011204;28;20030;-78
2022/05/14 09:07:06;;;;;;;36.20;8.85;;;;;;;22.07;63.38;101821.16;4978247;28;20041;-78
2022/05/14 09:09:32;;;;;;;46.35;9.98;;;;;;;21.89;64.65;101817.63;4993982;28;20474;-78
2022/05/14 09:12:01;;;;;;;33.30;9.45;;;;;;;22.69;61.57;101820.59;4994768;28;20042;-76
2022/05/14 09:14:29;;;;;;;32.17;9.93;;;;;;;22.49;59.58;101817.31;4993775;28;20038;-77
2022/05/14 09:17:01;;;;;;;36.60;9.27;;;;;;;21.61;62.69;101826.31;4990847;28;20029;-77
2022/05/14 09:19:36;;;;;;;43.63;9.90;;;;;;;21.54;62.88;101822.47;4993066;28;20121;-77
2022/05/14 09:22:23;;;;;;;44.20;9.90;;;;;;;22.08;62.59;101814.50;4979164;28;20038;-77
2022/05/14 09:24:56;;;;;;;33.17;8.50;;;;;;;22.36;59.84;101822.56;5012996;28;20033;-76
2022/05/14 09:27:34;;;;;;;42.35;9.35;;;;;;;22.31;60.15;101819.44;4996250;28;20478;-77
2022/05/14 09:30:06;;;;;;;43.10;10.02;;;;;;;22.24;61.85;101821.16;4997613;28;20030;-77
2022/05/14 09:32:39;;;;;;;40.38;9.95;;;;;;;22.55;59.35;101816.63;4998079;28;20044;-76
2022/05/14 09:35:21;;;;;;;37.03;9.15;;;;;;;22.16;59.51;101827.59;4996876;28;20531;-78
2022/05/14 09:37:46;;;;;;;33.20;9.88;;;;;;;22.87;59.26;101825.94;4996602;28;20042;-76
2022/05/14 09:40:21;;;;;;;43.30;10.13;;;;;;;22.59;59.58;101817.13;4962692;28;20046;-76
2022/05/14 09:43:17;;;;;;;32.88;10.13;;;;;;;22.15;59.37;101815.59;4994079;28;20045;-78
2022/05/14 09:46:02;;;;;;;28.63;8.95;;;;;;;22.42;60.12;101816.28;4979920;28;20089;-78
2022/05/14 09:48:35;;;;;;;33.45;9.10;;;;;;;23.01;58.62;101820.69;4994924;28;20056;-77
2022/05/14 09:51:06;;;;;;;37.30;9.10;;;;;;;22.28;58.04;101814.16;4997945;28;20109;-77
2022/05/14 09:53:39;;;;;;;29.63;9.90;;;;;;;22.09;59.41;101813.47;4998414;28;20046;-78
2022/05/14 09:56:08;;;;;;;39.67;9.07;;;;;;;21.25;61.75;101805.09;4999472;28;20034;-78
2022/05/14 09:59:11;;;;;;;33.92;8.38;;;;;;;22.06;60.32;101815.75;4996114;28;20061;-79
2022/05/14 10:01:45;;;;;;;35.83;8.90;;;;;;;21.21;64.74;101809.25;4986409;28;20554;-78
2022/05/14 10:04:43;;;;;;;37.55;8.85;;;;;;;22.45;60.72;101809.47;5009515;28;20112;-78
2022/05/14 10:07:52;;;;;;;32.78;8.68;;;;;;;22.70;58.32;101802.78;5013997;28;20045;-78
2022/05/14 10:10:47;;;;;;;42.03;8.63;;;;;;;23.11;56.38;101801.81;4960346;28;20615;-78
2022/05/14 10:13:21;;;;;;;37.13;9.18;;;;;;;22.92;57.56;101809.56;4990705;28;20034;-79
2022/05/14 10:16:04;;;;;;;42.97;9.55;;;;;;;22.07;58.96;101798.84;5014970;28;20509;-78
2022/05/14 10:18:54;;;;;;;32.65;8.73;;;;;;;22.40;59.37;101798.84;4996725;28;20034;-78
2022/05/14 10:21:42;;;;;;;33.15;8.48;;;;;;;23.24;57.23;101799.31;4995064;28;20073;-77
2022/05/14 10:27:25;;;;;;;38.60;7.15;;;;;;;22.90;56.54;101803.25;4996283;28;20057;-78
2022/05/14 10:30:22;;;;;;;34.00;7.95;;;;;;;22.91;56.64;101821.75;5000040;28;20094;-77
2022/05/14 10:32:59;;;;;;;38.85;7.93;;;;;;;22.87;56.06;101811.97;4999206;28;20048;-77
2022/05/14 10:35:35;;;;;;;33.47;7.60;;;;;;;22.57;56.21;101803.34;4997435;28;20520;-78
2022/05/14 10:38:14;;;;;;;40.92;7.72;;;;;;;23.08;54.86;101816.16;5014649;28;20061;-79
2022/05/14 10:40:48;;;;;;;31.25;6.50;;;;;;;23.40;53.93;101800.28;5009196;28;20389;-78
2022/05/14 10:43:22;;;;;;;34.90;6.25;;;;;;;23.68;56.55;101804.31;4978077;28;20039;-78
2022/05/14 10:45:51;;;;;;;41.80;6.88;;;;;;;23.95;52.56;101801.16;4981356;28;20389;-79
2022/05/14 10:48:39;;;;;;;27.77;6.43;;;;;;;24.08;52.18;101804.22;4981318;28;20026;-79
2022/05/14 10:51:12;;;;;;;33.80;7.18;;;;;;;23.20;53.56;101797.94;4991576;28;20497;-78
2022/05/14 10:53:43;;;;;;;48.17;7.60;;;;;;;22.99;54.86;101804.13;4986422;28;20675;-78
2022/05/14 10:56:29;;;;;;;34.90;7.40;;;;;;;22.85;54.69;101808.50;4996337;28;20041;-79
2022/05/14 10:59:04;;;;;;;34.47;7.55;;;;;;;23.80;51.66;101801.06;4979560;28;20034;-78
2022/05/14 11:01:59;;;;;;;34.20;7.32;;;;;;;23.18;53.73;101801.97;4993325;28;20038;-78
2022/05/14 11:04:31;;;;;;;42.80;7.45;;;;;;;23.68;51.09;101800.66;4997120;28;20030;-78
2022/05/14 11:07:08;;;;;;;;;;;;;;;23.39;52.72;101798.53;4981479;28;20093;-79
2022/05/14 11:09:41;;;;;;;36.40;7.13;;;;;;;23.52;53.57;101800.75;4997200;28;19921;-78
2022/05/14 11:12:19;;;;;;;33.80;7.43;;;;;;;23.07;55.27;101801.31;4997373;28;20038;-79
2022/05/14 11:14:50;;;;;;;34.35;7.57;;;;;;;22.46;54.32;101805.63;4996625;28;20031;-78
2022/05/14 11:17:34;;;;;;;32.58;6.20;;;;;;;22.36;55.19;101805.81;4998274;28;20034;-78
2022/05/14 11:20:03;;;;;;;32.35;7.85;;;;;;;21.87;55.81;101809.44;4992553;28;20042;-78
2022/05/14 11:22:41;;;;;;;35.13;8.75;;;;;;;22.09;55.28;101798.69;4999754;28;20085;-78
2022/05/14 11:25:32;;;;;;;31.23;8.45;;;;;;;22.59;54.00;101800.38;4994208;28;20437;-78
2022/05/14 11:28:12;;;;;;;28.70;7.82;;;;;;;23.22;49.99;101797.75;4985538;28;20054;-78
2022/05/14 11:30:44;;;;;;;22.80;8.55;;;;;;;23.34;50.73;101801.03;4981262;28;20030;-81
2022/05/14 11:33:31;;;;;;;39.42;9.10;;;;;;;23.25;52.30;101801.06;4979155;28;20072;-80
2022/05/14 11:35:59;;;;;;;34.50;8.35;;;;;;;22.85;51.31;101800.13;4978661;28;20035;-78
2022/05/14 11:38:25;;;;;;;37.85;7.82;;;;;;;23.26;51.21;101800.00;4989927;28;20026;-79
2022/05/14 11:41:00;;;;;;;32.20;7.97;;;;;;;23.59;50.19;101802.59;4993458;28;20122;-79
2022/05/14 11:43:42;;;;;;;31.05;8.80;;;;;;;23.90;49.04;101801.72;4978507;28;20475;-79
2022/05/14 11:46:14;;;;;;;;;;;;;;;23.40;51.07;101794.69;4985038;28;20054;-79
2022/05/14 11:48:46;;;;;;;36.63;7.90;;;;;;;23.18;50.68;101791.66;5011859;28;19968;-79